Time;durP1;ratioP1;P1;durP2;ratioP2;P2;SDS_P1;SDS_P2;PMS_P1;PMS_P2;Temp;Humidity;BMP_temperature;BMP_pressure;BME280_temperature;BME280_humidity;BME280_pressure;Samples;Min_cycle;Max_cycle;Signal;HPM_P1;HPM_P2
2023/08/18 00:01:30;;;;;;;5.25;3.83;;;18.80;89.60;;;;;;5057225;28;20036;-71
2023/08/18 00:03:56;;;;;;;4.85;4.20;;;18.80;89.50;;;;;;5057087;28;20033;-70
2023/08/18 00:06:22;;;;;;;5.45;4.70;;;18.80;89.80;;;;;;5056554;28;20109;-71
2023/08/18 00:08:47;;;;;;;5.95;5.07;;;18.70;90.00;;;;;;5058130;28;20492;-70
2023/08/18 00:11:13;;;;;;;5.50;4.13;;;18.60;90.10;;;;;;5058505;28;20120;-70
2023/08/18 00:13:38;;;;;;;5.28;4.05;;;18.60;90.10;;;;;;5068083;28;20031;-71
2023/08/18 00:16:04;;;;;;;5.90;5.00;;;18.70;90.10;;;;;;5067497;28;20499;-71
2023/08/18 00:18:30;;;;;;;5.20;4.53;;;18.70;90.10;;;;;;5066255;28;20033;-70
2023/08/18 00:20:55;;;;;;;4.47;3.72;;;18.60;90.20;;;;;;5067915;28;20047;-70
2023/08/18 00:23:21;;;;;;;4.72;4.32;;;18.60;90.20;;;;;;5066673;28;20024;-71
2023/08/18 00:25:46;;;;;;;5.22;3.72;;;18.60;90.20;;;;;;5068777;28;20051;-70
2023/08/18 00:28:13;;;;;;;5.25;4.72;;;18.60;90.20;;;;;;5067671;28;20040;-70
2023/08/18 00:30:38;;;;;;;5.72;4.10;;;18.70;90.20;;;;;;5068989;28;20021;-70
2023/08/18 00:33:04;;;;;;;5.35;4.85;;;18.60;90.10;;;;;;5067088;28;20434;-70
2023/08/18 00:35:30;;;;;;;4.25;3.83;;;18.70;90.10;;;;;;5068090;28;20021;-70
2023/08/18 00:37:55;;;;;;;3.70;3.40;;;18.70;90.10;;;;;;5067587;28;20024;-70
2023/08/18 00:40:24;;;;;;;4.53;3.92;;;18.70;90.00;;;;;;5066792;28;20376;-71
2023/08/18 00:42:49;;;;;;;3.75;3.35;;;18.70;90.00;;;;;;5068561;28;20641;-70
2023/08/18 00:45:15;;;;;;;4.82;3.13;;;18.70;89.90;;;;;;5065663;28;20100;-70
2023/08/18 00:47:42;;;;;;;4.18;3.78;;;18.70;90.00;;;;;;5069559;28;20020;-70
2023/08/18 00:50:10;;;;;;;5.00;4.28;;;18.70;89.90;;;;;;5059485;28;20075;-70
2023/08/18 00:52:39;;;;;;;4.72;4.07;;;18.60;90.00;;;;;;5060463;28;20056;-70
2023/08/18 00:55:06;;;;;;;5.28;3.80;;;18.60;90.20;;;;;;5070935;28;20107;-70
2023/08/18 00:57:32;;;;;;;7.03;5.40;;;18.50;90.20;;;;;;5065970;28;20025;-70
2023/08/18 00:59:58;;;;;;;4.70;3.92;;;18.50;90.40;;;;;;5053481;28;20063;-70
2023/08/18 01:02:24;;;;;;;4.55;3.78;;;18.40;90.50;;;;;;5060839;28;20479;-70
2023/08/18 01:04:51;;;;;;;4.05;3.65;;;18.50;90.40;;;;;;5069404;28;20029;-70
2023/08/18 01:07:17;;;;;;;4.97;3.50;;;18.50;90.40;;;;;;5058485;28;20032;-70
2023/08/18 01:09:42;;;;;;;5.05;4.07;;;18.60;90.30;;;;;;5065221;28;20510;-70
2023/08/18 01:12:49;;;;;;;4.38;3.78;;;18.60;90.20;;;;;;5069466;28;20031;-71
2023/08/18 01:15:17;;;;;;;4.60;3.90;;;18.60;90.20;;;;;;5068211;28;20028;-69
2023/08/18 01:17:49;;;;;;;7.68;5.40;;;18.60;90.20;;;;;;5060970;28;20533;-70
2023/08/18 01:20:16;;;;;;;7.22;5.78;;;18.50;90.30;;;;;;5048962;28;20053;-70
2023/08/18 01:22:44;;;;;;;5.68;4.60;;;18.40;90.40;;;;;;5052105;28;20543;-71
2023/08/18 01:25:10;;;;;;;5.60;4.95;;;18.30;90.80;;;;;;5070035;28;20025;-71
2023/08/18 01:27:35;;;;;;;6.03;4.10;;;18.20;91.00;;;;;;5067327;28;20028;-70
2023/08/18 01:30:02;;;;;;;5.78;5.07;;;18.30;91.00;;;;;;5069678;28;20036;-70
2023/08/18 01:33:01;;;;;;;5.00;4.18;;;18.20;91.00;;;;;;5066158;28;20510;-70
2023/08/18 01:35:29;;;;;;;4.95;3.95;;;18.30;91.10;;;;;;5049890;28;20502;-70
2023/08/18 01:37:56;;;;;;;6.45;5.40;;;18.30;91.00;;;;;;5059812;28;20426;-70
2023/08/18 01:40:25;;;;;;;6.68;5.57;;;18.20;91.00;;;;;;5056601;28;20100;-70
2023/08/18 01:42:52;;;;;;;5.90;4.72;;;18.20;91.10;;;;;;5064345;28;20029;-70
2023/08/18 01:45:18;;;;;;;6.10;4.47;;;18.10;91.20;;;;;;5062297;28;20029;-70
2023/08/18 01:47:43;;;;;;;5.82;4.63;;;18.10;91.20;;;;;;5067003;28;20029;-70
2023/08/18 01:50:10;;;;;;;5.30;4.10;;;18.10;91.30;;;;;;5060682;28;20029;-70
2023/08/18 01:52:36;;;;;;;6.15;4.95;;;18.10;91.30;;;;;;5052539;28;20021;-71
2023/08/18 01:55:01;;;;;;;5.65;5.00;;;18.00;91.40;;;;;;5052435;28;20028;-70
2023/08/18 01:57:27;;;;;;;6.05;4.65;;;18.00;91.60;;;;;;5053156;28;20107;-70
2023/08/18 01:59:52;;;;;;;5.60;4.50;;;18.00;91.60;;;;;;5053810;28;20506;-70
2023/08/18 02:02:18;;;;;;;5.40;4.75;;;18.10;91.50;;;;;;5053863;28;20060;-70
2023/08/18 02:04:44;;;;;;;4.97;3.97;;;18.00;91.50;;;;;;5064373;28;20027;-70
2023/08/18 02:07:09;;;;;;;5.20;3.50;;;18.10;91.40;;;;;;5073734;28;20033;-71
2023/08/18 02:09:37;;;;;;;4.82;3.92;;;18.10;91.30;;;;;;5058256;28;20025;-70
2023/08/18 02:12:02;;;;;;;5.03;4.20;;;18.10;91.20;;;;;;5053733;28;20024;-70
2023/08/18 02:14:28;;;;;;;7.28;5.30;;;18.10;91.30;;;;;;5065301;28;20077;-70
2023/08/18 02:16:54;;;;;;;4.63;4.05;;;18.10;91.30;;;;;;5067162;28;20086;-70
2023/08/18 02:19:19;;;;;;;5.30;4.40;;;18.10;91.30;;;;;;5069231;28;20039;-70
2023/08/18 02:21:45;;;;;;;5.80;4.63;;;18.20;91.30;;;;;;5070949;28;20036;-70
2023/08/18 02:24:10;;;;;;;5.20;4.55;;;18.20;91.20;;;;;;5059954;28;20438;-70
2023/08/18 02:26:36;;;;;;;6.07;5.18;;;18.10;91.20;;;;;;5072912;28;20029;-70
2023/08/18 02:29:02;;;;;;;5.13;4.28;;;18.10;91.20;;;;;;5072517;28;20466;-70
2023/08/18 02:31:28;;;;;;;5.95;4.30;;;18.10;91.20;;;;;;5071074;28;20091;-71
2023/08/18 02:33:54;;;;;;;5.07;4.40;;;18.20;91.20;;;;;;5057382;28;20521;-70
2023/08/18 02:36:19;;;;;;;5.00;4.50;;;18.20;91.10;;;;;;5072341;28;20035;-70
2023/08/18 02:38:45;;;;;;;5.13;4.28;;;18.10;91.20;;;;;;5072565;28;20090;-71
2023/08/18 02:41:11;;;;;;;5.78;4.68;;;18.10;91.20;;;;;;5070692;28;20401;-71
2023/08/18 02:43:38;;;;;;;5.35;4.60;;;18.10;91.20;;;;;;5064331;28;20024;-70
2023/08/18 02:46:03;;;;;;;4.90;3.80;;;18.20;91.20;;;;;;5072742;28;20028;-70
2023/08/18 02:48:30;;;;;;;7.18;6.10;;;18.20;91.10;;;;;;5054481;28;20043;-71
2023/08/18 02:51:08;;;;;;;5.97;4.93;;;18.20;91.10;;;;;;5051770;28;20031;-71
2023/08/18 02:53:35;;;;;;;5.78;4.60;;;18.20;91.20;;;;;;5056537;28;20029;-70
2023/08/18 02:56:01;;;;;;;6.85;5.10;;;18.20;91.10;;;;;;5065203;28;20041;-70
2023/08/18 02:58:28;;;;;;;6.68;4.88;;;18.20;91.10;;;;;;5063252;28;20029;-70
2023/08/18 03:00:55;;;;;;;7.22;4.60;;;18.20;91.10;;;;;;5072455;28;20021;-70
2023/08/18 03:03:22;;;;;;;4.72;4.28;;;18.20;91.00;;;;;;5068493;28;20032;-70
2023/08/18 03:05:49;;;;;;;6.03;5.38;;;18.20;90.90;;;;;;5069979;28;20074;-70
2023/08/18 03:08:14;;;;;;;7.30;6.22;;;18.20;91.00;;;;;;5052464;28;20130;-71
2023/08/18 03:10:40;;;;;;;7.30;5.72;;;18.20;91.10;;;;;;5052322;28;20421;-70
2023/08/18 03:13:05;;;;;;;6.95;5.90;;;18.10;91.20;;;;;;5061663;28;20563;-71
2023/08/18 03:15:31;;;;;;;5.88;5.28;;;18.10;91.60;;;;;;5071865;28;20035;-70
2023/08/18 03:17:57;;;;;;;7.70;5.75;;;18.10;91.40;;;;;;5066514;28;20080;-71
2023/08/18 03:20:23;;;;;;;8.35;5.35;;;18.10;91.40;;;;;;5071824;28;20089;-70
2023/08/18 03:22:48;;;;;;;6.07;5.20;;;18.10;91.40;;;;;;5071495;28;20025;-71
2023/08/18 03:25:14;;;;;;;7.95;5.22;;;18.10;91.30;;;;;;5071881;28;20123;-70
2023/08/18 03:27:40;;;;;;;8.23;7.20;;;18.10;91.20;;;;;;5065789;28;20032;-70
2023/08/18 03:30:07;;;;;;;7.78;6.90;;;18.10;91.40;;;;;;5070658;28;20492;-71
2023/08/18 03:32:33;;;;;;;7.18;6.20;;;18.00;91.50;;;;;;5070625;28;20035;-70
2023/08/18 03:34:59;;;;;;;9.25;6.60;;;18.00;91.60;;;;;;5059947;28;20027;-70
2023/08/18 03:37:24;;;;;;;6.82;6.10;;;18.00;91.70;;;;;;5071344;28;20035;-70
2023/08/18 03:39:56;;;;;;;7.00;6.28;;;18.00;91.70;;;;;;5072017;28;20033;-72
2023/08/18 03:42:22;;;;;;;;;;;18.10;91.70;;;;;;5072477;28;20471;-70
2023/08/18 03:44:47;;;;;;;6.53;5.50;;;18.10;91.50;;;;;;5067280;28;19961;-70
2023/08/18 03:47:13;;;;;;;7.10;6.20;;;18.20;91.40;;;;;;5065554;28;20021;-70
2023/08/18 03:49:38;;;;;;;8.27;6.85;;;18.20;91.40;;;;;;5067230;28;20395;-70
2023/08/18 03:52:04;;;;;;;6.97;5.53;;;18.20;91.40;;;;;;5069949;28;20056;-70
2023/08/18 03:54:30;;;;;;;9.98;7.72;;;18.20;91.20;;;;;;5068424;28;20025;-70
2023/08/18 03:56:56;;;;;;;7.30;5.88;;;18.20;91.20;;;;;;5067649;28;20021;-71
2023/08/18 03:59:21;;;;;;;7.03;6.13;;;18.20;91.30;;;;;;5062920;28;20028;-71
2023/08/18 04:01:47;;;;;;;11.57;8.63;;;18.20;91.30;;;;;;5066246;28;20033;-70
2023/08/18 04:04:13;;;;;;;8.50;7.22;;;18.10;91.30;;;;;;5050648;28;20017;-70
2023/08/18 04:06:38;;;;;;;8.75;7.57;;;18.10;91.50;;;;;;5051260;28;20108;-70
2023/08/18 04:09:06;;;;;;;11.68;10.25;;;18.10;91.60;;;;;;5063169;28;20079;-70
2023/08/18 04:11:35;;;;;;;11.80;9.07;;;18.10;91.60;;;;;;5054363;28;20108;-71
2023/08/18 04:14:02;;;;;;;10.43;8.43;;;18.00;91.70;;;;;;5064789;28;20029;-70
2023/08/18 04:16:29;;;;;;;14.70;11.02;;;18.10;91.70;;;;;;5051430;28;20017;-70
2023/08/18 04:18:55;;;;;;;9.45;7.90;;;18.00;91.90;;;;;;5051343;28;20125;-70
2023/08/18 04:21:20;;;;;;;12.68;10.05;;;17.90;92.00;;;;;;5051384;28;20159;-70
2023/08/18 04:23:46;;;;;;;9.63;8.63;;;18.00;92.00;;;;;;5057828;28;20372;-70
2023/08/18 04:26:12;;;;;;;11.88;10.00;;;18.00;91.90;;;;;;5064971;28;20111;-71
2023/08/18 04:28:38;;;;;;;10.20;8.35;;;17.90;91.90;;;;;;5051066;28;20166;-71
2023/08/18 04:31:04;;;;;;;9.00;8.05;;;18.00;91.90;;;;;;5059192;28;20379;-70
2023/08/18 04:33:30;;;;;;;12.55;9.90;;;18.00;91.80;;;;;;5070944;28;20411;-71
2023/08/18 04:35:55;;;;;;;11.48;10.05;;;18.00;91.90;;;;;;5060285;28;20021;-70
2023/08/18 04:38:21;;;;;;;9.93;8.07;;;18.00;91.90;;;;;;5050226;28;20033;-71
2023/08/18 04:40:59;;;;;;;13.00;10.25;;;18.10;91.80;;;;;;5050875;28;20104;-70
2023/08/18 04:43:26;;;;;;;12.95;10.82;;;18.10;91.80;;;;;;5050342;28;20036;-71
2023/08/18 04:45:52;;;;;;;14.40;9.82;;;18.10;91.90;;;;;;5050432;28;20071;-70
2023/08/18 04:48:19;;;;;;;10.90;8.60;;;18.10;91.80;;;;;;5054297;28;20086;-71
2023/08/18 04:50:44;;;;;;;10.57;8.48;;;18.20;91.80;;;;;;5065151;28;20427;-71
2023/08/18 04:53:10;;;;;;;11.18;9.70;;;18.20;91.70;;;;;;5050677;28;20025;-71
2023/08/18 04:55:35;;;;;;;9.20;7.60;;;18.10;91.80;;;;;;5057869;28;20405;-71
2023/08/18 04:58:02;;;;;;;12.50;10.10;;;18.20;91.70;;;;;;5067989;28;20040;-71
2023/08/18 05:00:28;;;;;;;10.20;8.90;;;18.20;91.60;;;;;;5069960;28;20086;-71
2023/08/18 05:02:53;;;;;;;15.35;12.52;;;18.20;91.60;;;;;;5067155;28;20027;-71
2023/08/18 05:05:19;;;;;;;13.38;10.73;;;18.20;91.60;;;;;;5070468;28;20020;-72
2023/08/18 05:07:45;;;;;;;14.95;11.18;;;18.20;91.70;;;;;;5056235;28;20070;-71
2023/08/18 05:10:11;;;;;;;17.80;13.88;;;18.20;91.60;;;;;;5069044;28;20032;-71
2023/08/18 05:12:37;;;;;;;13.85;11.65;;;18.10;91.60;;;;;;5069669;28;20081;-71
2023/08/18 05:15:03;;;;;;;13.70;10.48;;;18.10;91.70;;;;;;5059649;28;20467;-71
2023/08/18 05:17:29;;;;;;;13.73;11.25;;;18.10;91.70;;;;;;5062556;28;20032;-71
2023/08/18 05:19:55;;;;;;;13.73;9.93;;;18.20;91.70;;;;;;5069836;28;20032;-71
2023/08/18 05:22:21;;;;;;;13.88;9.85;;;18.20;91.60;;;;;;5069668;28;20016;-70
2023/08/18 05:24:48;;;;;;;12.20;10.18;;;18.20;91.60;;;;;;5066381;28;20425;-70
2023/08/18 05:27:15;;;;;;;15.85;12.32;;;18.20;91.50;;;;;;5068504;28;20115;-70
2023/08/18 05:29:40;;;;;;;16.15;12.75;;;18.20;91.70;;;;;;5065841;28;20020;-70
2023/08/18 05:32:06;;;;;;;13.25;10.98;;;18.20;91.70;;;;;;5069396;28;20024;-72
2023/08/18 05:34:31;;;;;;;12.57;10.45;;;18.20;91.70;;;;;;5069187;28;20418;-70
2023/08/18 05:36:57;;;;;;;14.15;11.38;;;18.20;91.70;;;;;;5066531;28;20059;-70
2023/08/18 05:39:22;;;;;;;17.27;13.23;;;18.30;91.70;;;;;;5069186;28;20024;-71
2023/08/18 05:41:48;;;;;;;16.23;10.80;;;18.20;91.70;;;;;;5065157;28;20091;-71
2023/08/18 05:44:14;;;;;;;14.57;10.55;;;18.20;91.80;;;;;;5060995;28;20070;-71
2023/08/18 05:46:39;;;;;;;13.32;10.95;;;18.20;91.80;;;;;;5069827;28;20105;-70
2023/08/18 05:49:05;;;;;;;18.30;13.73;;;18.30;91.70;;;;;;5064296;28;20547;-70
2023/08/18 05:51:30;;;;;;;16.42;12.70;;;18.30;91.80;;;;;;5063438;28;20100;-71
2023/08/18 05:53:56;;;;;;;14.57;11.50;;;18.30;91.80;;;;;;5049598;28;20032;-71
2023/08/18 05:56:22;;;;;;;15.27;10.90;;;18.30;91.90;;;;;;5049783;28;20079;-71
2023/08/18 05:58:47;;;;;;;16.13;12.27;;;18.30;91.90;;;;;;5049781;28;20025;-71
2023/08/18 06:01:14;;;;;;;14.00;11.55;;;18.40;91.90;;;;;;5054858;28;20032;-72
2023/08/18 06:03:40;;;;;;;16.02;11.52;;;18.30;91.90;;;;;;5069023;28;20099;-71
2023/08/18 06:06:06;;;;;;;18.00;13.88;;;18.40;92.00;;;;;;5061135;28;20137;-70
2023/08/18 06:08:32;;;;;;;14.68;10.60;;;18.30;92.10;;;;;;5062924;28;20033;-70
2023/08/18 06:10:57;;;;;;;15.45;10.27;;;18.30;92.20;;;;;;5049671;28;20491;-71
2023/08/18 06:13:23;;;;;;;15.00;10.70;;;18.40;92.10;;;;;;5049113;28;20063;-72
2023/08/18 06:15:54;;;;;;;13.32;9.68;;;18.40;92.00;;;;;;5069195;28;20613;-70
2023/08/18 06:18:20;;;;;;;16.17;11.35;;;18.50;92.00;;;;;;5068895;28;20021;-72
2023/08/18 06:20:46;;;;;;;16.08;11.63;;;18.40;92.00;;;;;;5064879;28;20046;-71
2023/08/18 06:23:11;;;;;;;15.57;12.30;;;18.40;92.10;;;;;;5055981;28;20108;-71
2023/08/18 06:25:37;;;;;;;15.15;10.65;;;18.40;92.10;;;;;;5065440;28;20048;-70
2023/08/18 06:28:03;;;;;;;18.67;13.55;;;18.40;92.20;;;;;;5069425;28;20436;-70
2023/08/18 06:30:28;;;;;;;18.95;12.50;;;18.40;92.30;;;;;;5054160;28;20025;-70
2023/08/18 06:32:54;;;;;;;16.13;11.70;;;18.40;92.40;;;;;;5050650;28;20033;-72
2023/08/18 06:35:19;;;;;;;16.92;12.18;;;18.40;92.40;;;;;;5053359;28;20025;-69
2023/08/18 06:37:45;;;;;;;16.90;11.45;;;18.40;92.40;;;;;;5058876;28;20033;-70
2023/08/18 06:40:11;;;;;;;15.23;11.38;;;18.50;92.40;;;;;;5072708;28;20048;-70
2023/08/18 06:42:36;;;;;;;18.55;11.52;;;18.60;92.40;;;;;;5065504;28;20100;-71
2023/08/18 06:45:03;;;;;;;14.85;11.68;;;18.50;92.30;;;;;;5062333;28;20507;-70
2023/08/18 06:47:29;;;;;;;15.25;11.98;;;18.60;92.40;;;;;;5057371;28;20025;-70
2023/08/18 06:49:55;;;;;;;12.88;9.57;;;18.60;92.40;;;;;;5060230;28;20028;-71
2023/08/18 06:52:20;;;;;;;12.63;9.18;;;18.80;92.30;;;;;;5072695;28;20184;-70
2023/08/18 06:54:47;;;;;;;16.85;11.68;;;19.00;92.00;;;;;;5071408;28;20601;-70
2023/08/18 06:57:13;;;;;;;19.70;13.85;;;19.10;91.70;;;;;;5062762;28;20024;-71
2023/08/18 06:59:38;;;;;;;13.98;10.73;;;19.00;91.60;;;;;;5072276;28;20016;-71
2023/08/18 07:02:04;;;;;;;14.40;9.15;;;19.00;91.70;;;;;;5071211;28;20486;-70
2023/08/18 07:04:29;;;;;;;11.38;8.90;;;19.20;91.60;;;;;;5072210;28;20107;-70
2023/08/18 07:06:55;;;;;;;11.05;8.98;;;19.30;91.40;;;;;;5071945;28;20107;-71
2023/08/18 07:09:21;;;;;;;11.75;8.75;;;19.30;91.30;;;;;;5070988;28;20028;-70
2023/08/18 07:11:46;;;;;;;13.63;9.82;;;19.40;91.20;;;;;;5071199;28;20020;-71
2023/08/18 07:14:12;;;;;;;12.57;9.80;;;19.40;91.10;;;;;;5053180;28;20078;-71
2023/08/18 07:16:38;;;;;;;11.85;8.15;;;19.40;91.10;;;;;;5070158;28;20035;-70
2023/08/18 07:19:03;;;;;;;9.98;7.20;;;19.40;91.20;;;;;;5066453;28;20025;-70
2023/08/18 07:21:29;;;;;;;12.40;9.18;;;19.60;91.10;;;;;;5053448;28;20031;-70
2023/08/18 07:23:55;;;;;;;14.43;8.05;;;19.70;90.90;;;;;;5052301;28;20029;-70
2023/08/18 07:26:20;;;;;;;12.45;10.23;;;19.80;90.90;;;;;;5064584;28;20036;-70
2023/08/18 07:28:46;;;;;;;12.10;9.82;;;19.80;90.70;;;;;;5067050;28;20082;-70
2023/08/18 07:31:11;;;;;;;13.73;10.45;;;19.60;90.60;;;;;;5071457;28;20025;-71
2023/08/18 07:33:37;;;;;;;13.43;11.00;;;19.60;90.60;;;;;;5064479;28;20025;-70
2023/08/18 07:36:03;;;;;;;12.55;9.40;;;19.50;90.70;;;;;;5058418;28;20056;-71
2023/08/18 07:38:33;;;;;;;12.23;9.45;;;19.60;90.90;;;;;;5050664;28;20025;-70
2023/08/18 07:40:59;;;;;;;13.70;10.60;;;19.60;90.80;;;;;;5056306;28;20028;-70
2023/08/18 07:43:24;;;;;;;12.88;10.20;;;19.60;90.80;;;;;;5064945;28;20032;-71
2023/08/18 07:45:50;;;;;;;12.73;9.63;;;19.70;91.10;;;;;;5056926;28;20037;-71
2023/08/18 07:48:16;;;;;;;11.13;9.10;;;19.70;90.70;;;;;;5064014;28;20024;-70
2023/08/18 07:50:42;;;;;;;14.73;11.02;;;19.70;90.70;;;;;;5059104;28;20472;-71
2023/08/18 07:53:08;;;;;;;12.10;9.88;;;19.70;90.70;;;;;;5061979;28;20104;-70
2023/08/18 07:55:33;;;;;;;10.55;8.80;;;19.80;90.70;;;;;;5061211;28;20601;-70
2023/08/18 07:57:59;;;;;;;14.48;11.20;;;20.00;90.60;;;;;;5061200;28;20069;-70
2023/08/18 08:00:26;;;;;;;16.05;11.70;;;20.00;90.40;;;;;;5061329;28;20502;-71
2023/08/18 08:02:52;;;;;;;13.77;10.48;;;20.00;90.40;;;;;;5060361;28;20661;-70
2023/08/18 08:05:20;;;;;;;12.25;9.82;;;20.00;90.40;;;;;;5062808;28;20491;-70
2023/08/18 08:07:46;;;;;;;16.77;11.02;;;20.00;90.40;;;;;;5060525;28;20120;-70
2023/08/18 08:10:12;;;;;;;12.75;8.80;;;20.10;90.50;;;;;;5060482;28;20013;-70
2023/08/18 08:12:39;;;;;;;14.32;10.50;;;20.30;90.40;;;;;;5060198;28;20051;-70
2023/08/18 08:15:07;;;;;;;14.40;11.02;;;20.30;90.10;;;;;;5061662;28;20013;-70
2023/08/18 08:17:33;;;;;;;14.80;10.80;;;20.30;90.00;;;;;;5059123;28;20059;-70
2023/08/18 08:20:07;;;;;;;15.50;11.18;;;20.30;90.10;;;;;;5062501;28;20056;-70
2023/08/18 08:22:33;;;;;;;13.52;11.15;;;20.20;90.00;;;;;;5059012;28;20629;-69
2023/08/18 08:24:58;;;;;;;11.20;9.23;;;20.30;90.10;;;;;;5061045;28;20027;-69
2023/08/18 08:27:24;;;;;;;12.75;9.70;;;20.30;90.20;;;;;;5056007;28;20029;-70
2023/08/18 08:29:51;;;;;;;11.90;9.68;;;20.40;90.10;;;;;;5061156;28;20024;-70
2023/08/18 08:32:17;;;;;;;13.40;10.48;;;20.50;90.10;;;;;;5061757;28;20032;-70
2023/08/18 08:34:50;;;;;;;12.07;9.90;;;20.50;89.80;;;;;;5062667;28;20017;-70
2023/08/18 08:37:17;;;;;;;9.65;7.50;;;20.50;89.90;;;;;;5072201;28;20032;-70
2023/08/18 08:39:42;;;;;;;11.25;9.65;;;20.70;89.90;;;;;;5062434;28;20379;-71
2023/08/18 08:42:09;;;;;;;10.20;8.95;;;20.80;89.40;;;;;;5059393;28;20021;-71
2023/08/18 08:44:34;;;;;;;10.38;8.68;;;20.90;89.20;;;;;;5066642;28;20419;-71
2023/08/18 08:47:00;;;;;;;11.10;8.65;;;21.00;88.90;;;;;;5059674;28;20060;-71
2023/08/18 08:49:30;;;;;;;10.27;8.88;;;21.00;88.50;;;;;;5066357;28;20096;-71
2023/08/18 08:52:03;;;;;;;12.20;9.93;;;21.10;88.20;;;;;;5058245;28;20143;-71
2023/08/18 08:54:30;;;;;;;9.38;7.70;;;21.10;87.80;;;;;;5063243;28;20021;-71
2023/08/18 08:56:58;;;;;;;13.68;10.77;;;21.10;87.90;;;;;;5060995;28;20017;-71
2023/08/18 08:59:24;;;;;;;11.90;10.02;;;21.10;87.40;;;;;;5061773;28;20024;-71
2023/08/18 09:01:52;;;;;;;11.13;9.30;;;21.10;87.70;;;;;;5060640;28;20017;-71
2023/08/18 09:04:18;;;;;;;13.00;10.23;;;21.20;87.80;;;;;;5059676;28;20060;-71
2023/08/18 09:06:45;;;;;;;9.32;8.07;;;21.20;87.80;;;;;;5059810;28;20044;-71
2023/08/18 09:09:11;;;;;;;9.13;7.32;;;21.30;87.80;;;;;;5065699;28;20028;-70
2023/08/18 09:11:45;;;;;;;9.68;8.63;;;21.50;87.50;;;;;;5060495;28;20024;-71
2023/08/18 09:14:14;;;;;;;10.93;9.25;;;21.50;87.40;;;;;;5059284;28;20454;-71
2023/08/18 09:16:44;;;;;;;10.25;8.80;;;21.60;86.90;;;;;;5056775;28;20036;-70
2023/08/18 09:19:16;;;;;;;10.80;9.20;;;21.50;86.70;;;;;;5066529;28;20028;-71
2023/08/18 09:21:41;;;;;;;12.90;10.35;;;21.50;86.60;;;;;;5059849;28;20383;-71
2023/08/18 09:24:08;;;;;;;12.45;10.13;;;21.40;86.40;;;;;;5059751;28;20549;-71
2023/08/18 09:26:34;;;;;;;11.75;9.10;;;21.40;86.70;;;;;;5056587;28;20499;-70
2023/08/18 09:29:00;;;;;;;10.60;9.20;;;21.40;86.90;;;;;;5060267;28;20514;-71
2023/08/18 09:31:25;;;;;;;10.43;8.60;;;21.60;86.60;;;;;;5069181;28;20048;-72
2023/08/18 09:33:52;;;;;;;8.63;6.85;;;21.60;86.30;;;;;;5057353;28;20035;-71
2023/08/18 09:36:18;;;;;;;11.90;8.32;;;21.90;86.10;;;;;;5052244;28;20600;-71
2023/08/18 09:38:44;;;;;;;8.48;6.68;;;22.10;85.40;;;;;;5065699;28;20082;-69
2023/08/18 09:41:11;;;;;;;10.27;8.90;;;22.40;85.00;;;;;;5067176;28;20095;-69
2023/08/18 09:43:38;;;;;;;11.70;8.80;;;22.50;83.50;;;;;;5064002;28;20021;-72
2023/08/18 09:46:05;;;;;;;10.93;9.23;;;22.60;83.30;;;;;;5057000;28;20550;-71
2023/08/18 09:48:35;;;;;;;7.65;6.30;;;22.70;82.70;;;;;;5063853;28;20040;-68
2023/08/18 09:51:01;;;;;;;9.98;8.98;;;22.90;82.30;;;;;;5063941;28;20025;-68
2023/08/18 09:53:30;;;;;;;9.40;7.70;;;22.90;81.70;;;;;;5055955;28;20115;-68
2023/08/18 09:56:04;;;;;;;8.10;6.50;;;23.00;82.00;;;;;;5061437;28;20079;-68
2023/08/18 09:58:54;;;;;;;8.52;7.25;;;23.30;81.60;;;;;;5063293;28;20051;-68
2023/08/18 10:01:22;;;;;;;10.38;7.72;;;23.50;80.80;;;;;;5063434;28;20086;-69
2023/08/18 10:03:48;;;;;;;8.32;7.40;;;23.80;80.10;;;;;;5063392;28;20278;-69
2023/08/18 10:06:16;;;;;;;8.25;6.85;;;23.80;79.40;;;;;;5061311;28;20033;-68
2023/08/18 10:08:42;;;;;;;11.70;9.55;;;23.90;78.90;;;;;;5062263;28;20039;-68
2023/08/18 10:11:09;;;;;;;7.03;5.90;;;23.70;77.80;;;;;;5064118;28;20025;-68
2023/08/18 10:13:37;;;;;;;8.40;6.80;;;23.80;78.60;;;;;;5065750;28;20024;-69
2023/08/18 10:16:05;;;;;;;7.57;6.78;;;24.00;78.50;;;;;;5066752;28;20175;-68
2023/08/18 10:18:31;;;;;;;10.25;8.90;;;24.20;78.40;;;;;;5065517;28;20552;-68
2023/08/18 10:20:58;;;;;;;9.95;8.90;;;24.20;77.60;;;;;;5066006;28;20103;-68
2023/08/18 10:23:24;;;;;;;11.25;8.45;;;24.00;76.90;;;;;;5065724;28;20032;-69
2023/08/18 10:25:51;;;;;;;10.52;8.65;;;24.00;77.30;;;;;;5066445;28;20017;-69
2023/08/18 10:28:23;;;;;;;9.38;8.00;;;23.80;77.30;;;;;;5062448;28;20064;-69
2023/08/18 10:31:00;;;;;;;6.47;5.85;;;23.90;77.80;;;;;;5064879;28;20020;-68
2023/08/18 10:33:43;;;;;;;9.73;7.35;;;24.10;77.70;;;;;;5065082;28;20544;-69
2023/08/18 10:36:12;;;;;;;9.65;7.82;;;24.30;77.30;;;;;;5069161;28;20013;-68
2023/08/18 10:38:39;;;;;;;8.73;7.15;;;24.30;76.80;;;;;;5067541;28;20394;-70
2023/08/18 10:41:05;;;;;;;8.38;7.25;;;24.20;76.60;;;;;;5066068;28;20115;-69
2023/08/18 10:43:55;;;;;;;7.43;6.28;;;24.30;76.80;;;;;;5067748;28;20192;-69
2023/08/18 10:46:34;;;;;;;9.48;7.30;;;24.50;77.00;;;;;;5068338;28;20036;-68
2023/08/18 10:49:00;;;;;;;8.65;7.15;;;24.50;75.80;;;;;;5060866;28;20020;-70
2023/08/18 10:51:26;;;;;;;8.15;7.30;;;24.50;76.10;;;;;;5064198;28;20025;-69
2023/08/18 10:53:52;;;;;;;11.05;9.65;;;24.60;76.00;;;;;;5064428;28;20025;-68
2023/08/18 10:56:18;;;;;;;10.55;9.45;;;24.60;75.00;;;;;;5067661;28;20024;-69
2023/08/18 10:58:43;;;;;;;8.88;7.97;;;24.40;75.30;;;;;;5065667;28;20039;-68
2023/08/18 11:01:10;;;;;;;7.68;6.88;;;24.50;75.80;;;;;;5067206;28;20028;-68
2023/08/18 11:03:39;;;;;;;9.98;7.60;;;24.60;76.10;;;;;;5068735;28;20020;-69
2023/08/18 11:06:05;;;;;;;8.93;7.97;;;24.60;75.50;;;;;;5068675;28;20039;-70
2023/08/18 11:08:31;;;;;;;12.18;8.55;;;24.60;75.80;;;;;;5066950;28;20063;-70
2023/08/18 11:10:57;;;;;;;8.63;6.57;;;24.60;75.60;;;;;;5063521;28;20044;-69
2023/08/18 11:13:24;;;;;;;9.55;7.75;;;24.70;75.80;;;;;;5063315;28;20028;-69
2023/08/18 11:15:51;;;;;;;10.52;8.35;;;24.70;75.50;;;;;;5067641;28;20032;-69
2023/08/18 11:18:18;;;;;;;10.43;9.05;;;24.60;75.30;;;;;;5066659;28;20478;-68
2023/08/18 11:20:44;;;;;;;8.95;7.82;;;24.60;75.40;;;;;;5065995;28;20082;-69
2023/08/18 11:23:10;;;;;;;8.27;7.00;;;24.60;75.60;;;;;;5067803;28;20044;-70
2023/08/18 11:25:36;;;;;;;9.05;8.00;;;24.60;75.70;;;;;;5067952;28;20036;-68
2023/08/18 11:28:02;;;;;;;10.10;9.02;;;24.60;76.40;;;;;;5066056;28;20398;-69
2023/08/18 11:30:28;;;;;;;8.07;7.28;;;24.60;75.50;;;;;;5064005;28;20099;-70
2023/08/18 11:32:54;;;;;;;9.60;8.57;;;24.70;75.80;;;;;;5067907;28;20509;-69
2023/08/18 11:35:20;;;;;;;8.90;6.63;;;24.80;75.50;;;;;;5066108;28;20035;-70
2023/08/18 11:37:48;;;;;;;7.25;6.55;;;25.00;75.30;;;;;;5068032;28;20097;-70
2023/08/18 11:40:18;;;;;;;10.18;8.32;;;25.10;74.80;;;;;;5066488;28;20036;-69
2023/08/18 11:42:46;;;;;;;9.40;8.45;;;25.00;74.40;;;;;;5059463;28;20112;-69
2023/08/18 11:45:23;;;;;;;10.15;9.02;;;25.00;74.50;;;;;;5067641;28;20028;-69
2023/08/18 11:48:00;;;;;;;10.82;9.57;;;25.00;74.00;;;;;;5061458;28;20032;-70
2023/08/18 11:50:33;;;;;;;7.90;7.10;;;24.90;74.40;;;;;;5065597;28;20047;-68
2023/08/18 11:52:59;;;;;;;8.43;7.38;;;25.10;74.90;;;;;;5066703;28;20119;-69
2023/08/18 11:55:32;;;;;;;9.85;8.85;;;25.30;74.80;;;;;;5067828;28;20019;-69
2023/08/18 11:57:58;;;;;;;10.00;9.00;;;25.50;73.80;;;;;;5066869;28;20456;-69
2023/08/18 12:00:35;;;;;;;9.30;8.20;;;25.40;73.70;;;;;;5067288;28;20107;-69
2023/08/18 12:03:03;;;;;;;10.98;9.88;;;25.60;73.70;;;;;;5060208;28;20044;-69
2023/08/18 12:05:29;;;;;;;12.80;11.50;;;25.70;72.90;;;;;;5067501;28;20453;-69
2023/08/18 12:07:55;;;;;;;10.63;9.52;;;25.60;72.30;;;;;;5062689;28;20532;-69
2023/08/18 12:10:22;;;;;;;9.32;8.18;;;25.50;73.00;;;;;;5066971;28;20032;-70
2023/08/18 12:12:52;;;;;;;11.20;10.10;;;25.50;73.40;;;;;;5064664;28;20028;-69
2023/08/18 12:15:17;;;;;;;9.93;8.93;;;25.30;73.00;;;;;;5061981;28;20046;-70
2023/08/18 12:17:43;;;;;;;8.40;7.60;;;25.30;73.50;;;;;;5065422;28;20028;-70
2023/08/18 12:20:09;;;;;;;9.95;8.32;;;25.40;73.80;;;;;;5064227;28;20395;-69
2023/08/18 12:22:34;;;;;;;8.43;7.45;;;25.50;73.30;;;;;;5065550;28;20039;-70
2023/08/18 12:25:00;;;;;;;13.85;8.60;;;25.80;73.50;;;;;;5064678;28;20032;-69
2023/08/18 12:27:29;;;;;;;8.05;7.30;;;25.70;72.70;;;;;;5063643;28;20039;-69
2023/08/18 12:29:55;;;;;;;8.00;6.70;;;26.00;72.70;;;;;;5065770;28;20021;-69
2023/08/18 12:32:21;;;;;;;8.45;7.57;;;26.00;71.80;;;;;;5065539;28;20035;-69
2023/08/18 12:34:50;;;;;;;7.13;6.43;;;25.90;71.80;;;;;;5066676;28;20037;-70
2023/08/18 12:37:18;;;;;;;11.38;9.45;;;26.00;72.20;;;;;;5066923;28;20013;-70
2023/08/18 12:39:43;;;;;;;8.73;7.82;;;26.00;71.80;;;;;;5066606;28;20533;-70